sensor_id;sensor_type;location;lat;lon;timestamp;temperature;humidity
33476;DHT22;19814;48.224;11.422;2023-06-26T00:00:25;16.60;99.90
33476;DHT22;19814;48.224;11.422;2023-06-26T00:02:51;16.60;99.90
33476;DHT22;19814;48.224;11.422;2023-06-26T00:05:16;16.50;99.90
33476;DHT22;19814;48.224;11.422;2023-06-26T00:07:42;16.50;99.90
33476;DHT22;19814;48.224;11.422;2023-06-26T00:10:08;16.40;99.90
33476;DHT22;19814;48.224;11.422;2023-06-26T00:12:34;16.30;99.90
33476;DHT22;19814;48.224;11.422;2023-06-26T00:14:59;16.30;99.90
33476;DHT22;19814;48.224;11.422;2023-06-26T00:17:25;16.30;99.90
33476;DHT22;19814;48.224;11.422;2023-06-26T00:19:51;16.30;99.90
33476;DHT22;19814;48.224;11.422;2023-06-26T00:22:16;16.30;99.90
33476;DHT22;19814;48.224;11.422;2023-06-26T00:24:42;16.30;99.90
33476;DHT22;19814;48.224;11.422;2023-06-26T00:27:07;16.20;99.90
33476;DHT22;19814;48.224;11.422;2023-06-26T00:29:33;16.10;99.90
33476;DHT22;19814;48.224;11.422;2023-06-26T00:31:58;16.10;99.90
33476;DHT22;19814;48.224;11.422;2023-06-26T00:34:24;16.10;99.90
33476;DHT22;19814;48.224;11.422;2023-06-26T00:36:50;16.10;99.90
33476;DHT22;19814;48.224;11.422;2023-06-26T00:39:15;16.00;99.90
33476;DHT22;19814;48.224;11.422;2023-06-26T00:41:41;16.00;99.90
33476;DHT22;19814;48.224;11.422;2023-06-26T00:44:07;15.90;99.90
33476;DHT22;19814;48.224;11.422;2023-06-26T00:46:33;15.90;99.90
33476;DHT22;19814;48.224;11.422;2023-06-26T00:49:01;15.90;99.90
33476;DHT22;19814;48.224;11.422;2023-06-26T00:51:29;15.80;99.90
33476;DHT22;19814;48.224;11.422;2023-06-26T00:53:55;15.80;99.90
33476;DHT22;19814;48.224;11.422;2023-06-26T00:56:20;15.80;99.90
33476;DHT22;19814;48.224;11.422;2023-06-26T00:58:46;15.80;99.90
33476;DHT22;19814;48.224;11.422;2023-06-26T01:01:12;15.80;99.90
33476;DHT22;19814;48.224;11.422;2023-06-26T01:03:48;15.80;99.90
33476;DHT22;19814;48.224;11.422;2023-06-26T01:06:20;15.70;99.90
33476;DHT22;19814;48.224;11.422;2023-06-26T01:08:47;15.70;99.90
33476;DHT22;19814;48.224;11.422;2023-06-26T01:11:13;15.70;99.90
33476;DHT22;19814;48.224;11.422;2023-06-26T01:13:41;15.70;99.90
33476;DHT22;19814;48.224;11.422;2023-06-26T01:16:09;15.70;99.90
33476;DHT22;19814;48.224;11.422;2023-06-26T01:18:35;15.70;99.90
33476;DHT22;19814;48.224;11.422;2023-06-26T01:21:02;15.70;99.90
33476;DHT22;19814;48.224;11.422;2023-06-26T01:23:35;15.60;99.90
33476;DHT22;19814;48.224;11.422;2023-06-26T01:26:22;15.60;99.90
33476;DHT22;19814;48.224;11.422;2023-06-26T01:28:50;15.60;99.90
33476;DHT22;19814;48.224;11.422;2023-06-26T01:31:16;15.50;99.90
33476;DHT22;19814;48.224;11.422;2023-06-26T01:33:43;15.50;99.90
33476;DHT22;19814;48.224;11.422;2023-06-26T01:36:10;15.50;99.90
33476;DHT22;19814;48.224;11.422;2023-06-26T01:38:36;15.40;99.90
33476;DHT22;19814;48.224;11.422;2023-06-26T01:41:02;15.40;99.90
33476;DHT22;19814;48.224;11.422;2023-06-26T01:43:43;15.40;99.90
33476;DHT22;19814;48.224;11.422;2023-06-26T01:46:37;15.40;99.90
33476;DHT22;19814;48.224;11.422;2023-06-26T01:52:19;15.30;99.90
33476;DHT22;19814;48.224;11.422;2023-06-26T01:55:03;15.30;99.90
33476;DHT22;19814;48.224;11.422;2023-06-26T01:57:31;15.20;99.90
33476;DHT22;19814;48.224;11.422;2023-06-26T01:59:57;15.10;99.90
33476;DHT22;19814;48.224;11.422;2023-06-26T02:02:24;15.10;99.90
33476;DHT22;19814;48.224;11.422;2023-06-26T02:04:51;15.00;99.90
33476;DHT22;19814;48.224;11.422;2023-06-26T02:07:16;15.00;99.90
33476;DHT22;19814;48.224;11.422;2023-06-26T02:09:42;15.00;99.90
33476;DHT22;19814;48.224;11.422;2023-06-26T02:12:08;15.00;99.90
33476;DHT22;19814;48.224;11.422;2023-06-26T02:14:34;15.00;99.90
33476;DHT22;19814;48.224;11.422;2023-06-26T02:17:00;15.00;99.90
33476;DHT22;19814;48.224;11.422;2023-06-26T02:19:26;15.00;99.90
33476;DHT22;19814;48.224;11.422;2023-06-26T02:21:53;15.00;99.90
33476;DHT22;19814;48.224;11.422;2023-06-26T02:24:19;15.00;99.90
33476;DHT22;19814;48.224;11.422;2023-06-26T02:26:44;14.90;99.90
33476;DHT22;19814;48.224;11.422;2023-06-26T02:29:11;14.90;99.90
33476;DHT22;19814;48.224;11.422;2023-06-26T02:31:36;14.90;99.90
33476;DHT22;19814;48.224;11.422;2023-06-26T02:34:02;14.90;99.90
33476;DHT22;19814;48.224;11.422;2023-06-26T02:36:27;14.90;99.90
33476;DHT22;19814;48.224;11.422;2023-06-26T02:38:53;14.90;99.90
33476;DHT22;19814;48.224;11.422;2023-06-26T02:41:18;14.90;99.90
33476;DHT22;19814;48.224;11.422;2023-06-26T02:43:44;14.80;99.90
33476;DHT22;19814;48.224;11.422;2023-06-26T02:46:09;14.80;99.90
33476;DHT22;19814;48.224;11.422;2023-06-26T02:48:35;14.80;99.90
33476;DHT22;19814;48.224;11.422;2023-06-26T02:51:01;14.80;99.90
33476;DHT22;19814;48.224;11.422;2023-06-26T02:53:26;14.70;99.90
33476;DHT22;19814;48.224;11.422;2023-06-26T02:55:51;14.70;99.90
33476;DHT22;19814;48.224;11.422;2023-06-26T02:58:17;14.60;99.90
33476;DHT22;19814;48.224;11.422;2023-06-26T03:00:42;14.60;99.90
33476;DHT22;19814;48.224;11.422;2023-06-26T03:03:09;14.60;99.90
33476;DHT22;19814;48.224;11.422;2023-06-26T03:05:35;14.60;99.90
33476;DHT22;19814;48.224;11.422;2023-06-26T03:08:00;14.60;99.90
33476;DHT22;19814;48.224;11.422;2023-06-26T03:10:26;14.60;99.90
33476;DHT22;19814;48.224;11.422;2023-06-26T03:12:51;14.60;99.90
33476;DHT22;19814;48.224;11.422;2023-06-26T03:15:17;14.60;99.90
33476;DHT22;19814;48.224;11.422;2023-06-26T03:17:44;14.60;99.90
33476;DHT22;19814;48.224;11.422;2023-06-26T03:20:10;14.70;99.90
33476;DHT22;19814;48.224;11.422;2023-06-26T03:22:36;14.60;99.90
33476;DHT22;19814;48.224;11.422;2023-06-26T03:25:02;14.60;99.90
33476;DHT22;19814;48.224;11.422;2023-06-26T03:27:28;14.60;99.90
33476;DHT22;19814;48.224;11.422;2023-06-26T03:29:53;14.60;99.90
33476;DHT22;19814;48.224;11.422;2023-06-26T03:32:19;14.60;99.90
33476;DHT22;19814;48.224;11.422;2023-06-26T03:34:44;14.60;99.90
33476;DHT22;19814;48.224;11.422;2023-06-26T03:37:10;14.60;99.90
33476;DHT22;19814;48.224;11.422;2023-06-26T03:39:36;14.70;99.90
33476;DHT22;19814;48.224;11.422;2023-06-26T03:42:01;14.70;99.90
33476;DHT22;19814;48.224;11.422;2023-06-26T03:44:28;14.70;99.90
33476;DHT22;19814;48.224;11.422;2023-06-26T03:46:53;14.70;99.90
33476;DHT22;19814;48.224;11.422;2023-06-26T03:49:19;14.80;99.90
33476;DHT22;19814;48.224;11.422;2023-06-26T03:51:45;14.80;99.90
33476;DHT22;19814;48.224;11.422;2023-06-26T03:54:10;14.70;99.90
33476;DHT22;19814;48.224;11.422;2023-06-26T03:56:36;14.80;99.90
33476;DHT22;19814;48.224;11.422;2023-06-26T03:59:02;14.80;99.90
33476;DHT22;19814;48.224;11.422;2023-06-26T04:01:28;14.80;99.90
33476;DHT22;19814;48.224;11.422;2023-06-26T04:03:54;14.80;99.90
33476;DHT22;19814;48.224;11.422;2023-06-26T04:06:19;14.80;99.90
33476;DHT22;19814;48.224;11.422;2023-06-26T04:08:45;14.80;99.90
33476;DHT22;19814;48.224;11.422;2023-06-26T04:11:10;14.90;99.90
33476;DHT22;19814;48.224;11.422;2023-06-26T04:13:36;14.90;99.90
33476;DHT22;19814;48.224;11.422;2023-06-26T04:16:01;14.90;99.90
33476;DHT22;19814;48.224;11.422;2023-06-26T04:18:27;15.00;99.90
33476;DHT22;19814;48.224;11.422;2023-06-26T04:21:06;15.00;99.90
33476;DHT22;19814;48.224;11.422;2023-06-26T04:23:35;15.10;99.90
33476;DHT22;19814;48.224;11.422;2023-06-26T04:26:01;15.20;99.90
33476;DHT22;19814;48.224;11.422;2023-06-26T04:28:28;15.30;99.90
33476;DHT22;19814;48.224;11.422;2023-06-26T04:30:53;15.30;99.90
33476;DHT22;19814;48.224;11.422;2023-06-26T04:33:19;15.30;99.90
33476;DHT22;19814;48.224;11.422;2023-06-26T04:35:45;15.40;99.90
33476;DHT22;19814;48.224;11.422;2023-06-26T04:38:14;15.50;99.90
33476;DHT22;19814;48.224;11.422;2023-06-26T04:40:39;15.50;99.90
33476;DHT22;19814;48.224;11.422;2023-06-26T04:43:05;15.60;99.90
33476;DHT22;19814;48.224;11.422;2023-06-26T04:45:31;15.70;99.90
33476;DHT22;19814;48.224;11.422;2023-06-26T04:47:56;15.80;99.90
33476;DHT22;19814;48.224;11.422;2023-06-26T04:50:22;16.00;99.90
33476;DHT22;19814;48.224;11.422;2023-06-26T04:52:48;16.00;99.90
33476;DHT22;19814;48.224;11.422;2023-06-26T04:55:13;16.10;99.90
33476;DHT22;19814;48.224;11.422;2023-06-26T04:57:39;16.30;99.90
33476;DHT22;19814;48.224;11.422;2023-06-26T05:00:04;16.30;99.90
33476;DHT22;19814;48.224;11.422;2023-06-26T05:02:35;16.40;99.90
33476;DHT22;19814;48.224;11.422;2023-06-26T05:05:00;16.50;99.90
33476;DHT22;19814;48.224;11.422;2023-06-26T05:07:26;16.60;99.90
33476;DHT22;19814;48.224;11.422;2023-06-26T05:09:51;16.70;99.90
33476;DHT22;19814;48.224;11.422;2023-06-26T05:12:17;16.80;99.90
33476;DHT22;19814;48.224;11.422;2023-06-26T05:14:42;16.90;99.90
33476;DHT22;19814;48.224;11.422;2023-06-26T05:17:08;17.00;99.90
33476;DHT22;19814;48.224;11.422;2023-06-26T05:19:34;17.10;99.90
33476;DHT22;19814;48.224;11.422;2023-06-26T05:22:01;17.20;99.90
33476;DHT22;19814;48.224;11.422;2023-06-26T05:24:30;17.30;99.90
33476;DHT22;19814;48.224;11.422;2023-06-26T05:26:56;17.40;99.90
33476;DHT22;19814;48.224;11.422;2023-06-26T05:29:22;17.50;99.90
33476;DHT22;19814;48.224;11.422;2023-06-26T05:31:49;17.70;99.90
33476;DHT22;19814;48.224;11.422;2023-06-26T05:34:17;17.80;99.90
33476;DHT22;19814;48.224;11.422;2023-06-26T05:36:43;17.90;99.90
33476;DHT22;19814;48.224;11.422;2023-06-26T05:39:09;18.00;99.90
33476;DHT22;19814;48.224;11.422;2023-06-26T05:41:35;18.10;99.90
33476;DHT22;19814;48.224;11.422;2023-06-26T05:44:00;18.20;99.90
33476;DHT22;19814;48.224;11.422;2023-06-26T05:46:26;18.40;99.90
33476;DHT22;19814;48.224;11.422;2023-06-26T05:48:51;18.70;99.90
33476;DHT22;19814;48.224;11.422;2023-06-26T05:51:17;18.90;99.90
33476;DHT22;19814;48.224;11.422;2023-06-26T05:53:43;19.10;99.90
33476;DHT22;19814;48.224;11.422;2023-06-26T05:56:09;19.20;99.90
33476;DHT22;19814;48.224;11.422;2023-06-26T05:58:35;19.40;99.90
33476;DHT22;19814;48.224;11.422;2023-06-26T06:01:01;19.50;99.90
33476;DHT22;19814;48.224;11.422;2023-06-26T06:03:26;19.70;99.90
33476;DHT22;19814;48.224;11.422;2023-06-26T06:05:52;19.90;99.90
33476;DHT22;19814;48.224;11.422;2023-06-26T06:08:17;20.00;99.90
33476;DHT22;19814;48.224;11.422;2023-06-26T06:10:43;20.20;99.90
33476;DHT22;19814;48.224;11.422;2023-06-26T06:13:08;20.30;99.90
33476;DHT22;19814;48.224;11.422;2023-06-26T06:15:34;20.40;99.90
33476;DHT22;19814;48.224;11.422;2023-06-26T06:17:59;20.60;99.90
33476;DHT22;19814;48.224;11.422;2023-06-26T06:20:25;20.80;99.90
33476;DHT22;19814;48.224;11.422;2023-06-26T06:22:51;20.90;99.70
33476;DHT22;19814;48.224;11.422;2023-06-26T06:25:16;21.00;99.90
33476;DHT22;19814;48.224;11.422;2023-06-26T06:27:42;21.20;99.90
33476;DHT22;19814;48.224;11.422;2023-06-26T06:30:09;21.40;99.90
33476;DHT22;19814;48.224;11.422;2023-06-26T06:32:34;21.50;99.90
33476;DHT22;19814;48.224;11.422;2023-06-26T06:35:00;21.50;98.90
33476;DHT22;19814;48.224;11.422;2023-06-26T06:37:29;21.70;99.10
33476;DHT22;19814;48.224;11.422;2023-06-26T06:39:56;21.80;98.10
33476;DHT22;19814;48.224;11.422;2023-06-26T06:42:23;21.90;97.20
33476;DHT22;19814;48.224;11.422;2023-06-26T06:44:48;22.00;98.20
33476;DHT22;19814;48.224;11.422;2023-06-26T06:47:14;22.10;97.70
33476;DHT22;19814;48.224;11.422;2023-06-26T06:49:39;22.20;97.30
33476;DHT22;19814;48.224;11.422;2023-06-26T06:52:05;22.30;96.80
33476;DHT22;19814;48.224;11.422;2023-06-26T06:54:31;22.40;97.70
33476;DHT22;19814;48.224;11.422;2023-06-26T06:56:56;22.60;97.10
33476;DHT22;19814;48.224;11.422;2023-06-26T06:59:22;22.80;96.40
33476;DHT22;19814;48.224;11.422;2023-06-26T07:01:47;23.00;97.00
33476;DHT22;19814;48.224;11.422;2023-06-26T07:04:13;23.00;95.60
33476;DHT22;19814;48.224;11.422;2023-06-26T07:06:38;23.20;97.10
33476;DHT22;19814;48.224;11.422;2023-06-26T07:09:04;23.40;97.20
33476;DHT22;19814;48.224;11.422;2023-06-26T07:11:31;23.50;95.40
33476;DHT22;19814;48.224;11.422;2023-06-26T07:13:56;23.70;94.40
33476;DHT22;19814;48.224;11.422;2023-06-26T07:16:22;23.80;94.50
33476;DHT22;19814;48.224;11.422;2023-06-26T07:18:47;24.00;94.00
33476;DHT22;19814;48.224;11.422;2023-06-26T07:21:14;24.20;95.00
33476;DHT22;19814;48.224;11.422;2023-06-26T07:23:40;24.40;93.40
33476;DHT22;19814;48.224;11.422;2023-06-26T07:26:05;24.60;93.70
33476;DHT22;19814;48.224;11.422;2023-06-26T07:28:31;24.70;93.20
33476;DHT22;19814;48.224;11.422;2023-06-26T07:30:56;24.90;93.90
33476;DHT22;19814;48.224;11.422;2023-06-26T07:33:22;25.00;90.70
33476;DHT22;19814;48.224;11.422;2023-06-26T07:35:47;25.20;90.40
33476;DHT22;19814;48.224;11.422;2023-06-26T07:38:13;25.30;89.40
33476;DHT22;19814;48.224;11.422;2023-06-26T07:40:38;25.50;89.80
33476;DHT22;19814;48.224;11.422;2023-06-26T07:43:07;25.60;92.30
33476;DHT22;19814;48.224;11.422;2023-06-26T07:45:33;25.70;87.20
33476;DHT22;19814;48.224;11.422;2023-06-26T07:47:58;25.70;87.00
33476;DHT22;19814;48.224;11.422;2023-06-26T07:50:24;25.70;88.10
33476;DHT22;19814;48.224;11.422;2023-06-26T07:52:49;25.80;88.90
33476;DHT22;19814;48.224;11.422;2023-06-26T07:55:15;25.80;85.30
33476;DHT22;19814;48.224;11.422;2023-06-26T07:57:41;25.90;86.60
33476;DHT22;19814;48.224;11.422;2023-06-26T08:00:07;26.00;84.60
33476;DHT22;19814;48.224;11.422;2023-06-26T08:02:32;26.10;86.50
33476;DHT22;19814;48.224;11.422;2023-06-26T08:04:58;26.30;86.10
33476;DHT22;19814;48.224;11.422;2023-06-26T08:07:23;26.40;84.00
33476;DHT22;19814;48.224;11.422;2023-06-26T08:09:49;26.50;83.60
33476;DHT22;19814;48.224;11.422;2023-06-26T08:12:14;26.70;84.10
33476;DHT22;19814;48.224;11.422;2023-06-26T08:14:40;26.80;82.00
33476;DHT22;19814;48.224;11.422;2023-06-26T08:17:05;26.90;82.20
33476;DHT22;19814;48.224;11.422;2023-06-26T08:19:31;26.90;83.00
33476;DHT22;19814;48.224;11.422;2023-06-26T08:21:56;27.00;86.80
33476;DHT22;19814;48.224;11.422;2023-06-26T08:24:22;27.20;88.40
33476;DHT22;19814;48.224;11.422;2023-06-26T08:26:48;27.50;84.40
33476;DHT22;19814;48.224;11.422;2023-06-26T08:29:14;27.70;81.40
33476;DHT22;19814;48.224;11.422;2023-06-26T08:31:41;27.80;80.90
33476;DHT22;19814;48.224;11.422;2023-06-26T08:34:07;28.00;80.00
33476;DHT22;19814;48.224;11.422;2023-06-26T08:36:33;28.10;79.50
33476;DHT22;19814;48.224;11.422;2023-06-26T08:38:59;28.20;79.00
33476;DHT22;19814;48.224;11.422;2023-06-26T08:41:25;28.20;77.70
33476;DHT22;19814;48.224;11.422;2023-06-26T08:43:51;28.30;78.20
33476;DHT22;19814;48.224;11.422;2023-06-26T08:46:18;28.50;80.80
33476;DHT22;19814;48.224;11.422;2023-06-26T08:48:48;28.70;76.90
33476;DHT22;19814;48.224;11.422;2023-06-26T08:51:17;28.80;76.60
33476;DHT22;19814;48.224;11.422;2023-06-26T08:53:50;29.00;74.80
33476;DHT22;19814;48.224;11.422;2023-06-26T08:56:18;29.00;73.70
33476;DHT22;19814;48.224;11.422;2023-06-26T08:58:46;29.10;72.10
33476;DHT22;19814;48.224;11.422;2023-06-26T09:01:13;29.10;73.90
33476;DHT22;19814;48.224;11.422;2023-06-26T09:03:38;29.20;76.10
33476;DHT22;19814;48.224;11.422;2023-06-26T09:06:04;29.30;74.10
33476;DHT22;19814;48.224;11.422;2023-06-26T09:08:29;29.20;69.10
33476;DHT22;19814;48.224;11.422;2023-06-26T09:10:55;29.40;70.20
33476;DHT22;19814;48.224;11.422;2023-06-26T09:13:21;29.50;70.20
33476;DHT22;19814;48.224;11.422;2023-06-26T09:15:47;29.60;72.40
33476;DHT22;19814;48.224;11.422;2023-06-26T09:18:13;29.70;69.20
33476;DHT22;19814;48.224;11.422;2023-06-26T09:20:41;29.80;69.70
33476;DHT22;19814;48.224;11.422;2023-06-26T09:23:08;30.00;69.00
33476;DHT22;19814;48.224;11.422;2023-06-26T09:25:33;30.20;68.30
33476;DHT22;19814;48.224;11.422;2023-06-26T09:27:59;30.30;70.10
33476;DHT22;19814;48.224;11.422;2023-06-26T09:30:25;30.40;68.50
33476;DHT22;19814;48.224;11.422;2023-06-26T09:32:50;30.50;66.80
33476;DHT22;19814;48.224;11.422;2023-06-26T09:35:16;30.70;66.80
33476;DHT22;19814;48.224;11.422;2023-06-26T09:37:43;30.70;66.70
33476;DHT22;19814;48.224;11.422;2023-06-26T09:40:09;30.70;62.20
33476;DHT22;19814;48.224;11.422;2023-06-26T09:42:35;30.60;62.00
33476;DHT22;19814;48.224;11.422;2023-06-26T09:45:02;30.60;61.90
33476;DHT22;19814;48.224;11.422;2023-06-26T09:47:30;30.60;63.10
33476;DHT22;19814;48.224;11.422;2023-06-26T09:49:56;30.70;60.50
33476;DHT22;19814;48.224;11.422;2023-06-26T09:52:26;30.80;59.90
33476;DHT22;19814;48.224;11.422;2023-06-26T09:55:08;30.60;62.00
33476;DHT22;19814;48.224;11.422;2023-06-26T09:57:34;30.60;61.90
33476;DHT22;19814;48.224;11.422;2023-06-26T10:00:02;30.80;60.30
33476;DHT22;19814;48.224;11.422;2023-06-26T10:02:28;30.90;59.10
33476;DHT22;19814;48.224;11.422;2023-06-26T10:04:53;30.70;57.80
33476;DHT22;19814;48.224;11.422;2023-06-26T10:07:20;30.50;59.70
33476;DHT22;19814;48.224;11.422;2023-06-26T10:09:48;30.30;60.30
33476;DHT22;19814;48.224;11.422;2023-06-26T10:12:42;30.40;59.30
33476;DHT22;19814;48.224;11.422;2023-06-26T10:15:08;30.70;60.30
33476;DHT22;19814;48.224;11.422;2023-06-26T10:17:39;31.10;63.30
33476;DHT22;19814;48.224;11.422;2023-06-26T10:20:07;31.30;60.60
33476;DHT22;19814;48.224;11.422;2023-06-26T10:22:39;31.10;60.30
33476;DHT22;19814;48.224;11.422;2023-06-26T10:25:07;31.10;59.50
33476;DHT22;19814;48.224;11.422;2023-06-26T10:27:37;31.00;59.30
33476;DHT22;19814;48.224;11.422;2023-06-26T10:30:04;31.20;56.40
33476;DHT22;19814;48.224;11.422;2023-06-26T10:32:32;31.30;55.20
33476;DHT22;19814;48.224;11.422;2023-06-26T10:34:58;31.50;59.00
33476;DHT22;19814;48.224;11.422;2023-06-26T10:37:41;31.90;60.80
33476;DHT22;19814;48.224;11.422;2023-06-26T10:40:08;32.10;55.50
33476;DHT22;19814;48.224;11.422;2023-06-26T10:42:35;32.00;55.70
33476;DHT22;19814;48.224;11.422;2023-06-26T10:45:28;32.00;57.60
33476;DHT22;19814;48.224;11.422;2023-06-26T10:47:53;31.50;57.80
33476;DHT22;19814;48.224;11.422;2023-06-26T10:50:27;31.30;59.80
33476;DHT22;19814;48.224;11.422;2023-06-26T10:56:02;31.40;55.80
33476;DHT22;19814;48.224;11.422;2023-06-26T11:03:43;31.10;56.90
33476;DHT22;19814;48.224;11.422;2023-06-26T11:06:19;31.20;58.00
33476;DHT22;19814;48.224;11.422;2023-06-26T11:08:53;31.10;55.10
33476;DHT22;19814;48.224;11.422;2023-06-26T11:11:19;30.90;55.30
33476;DHT22;19814;48.224;11.422;2023-06-26T11:13:46;30.60;56.10
33476;DHT22;19814;48.224;11.422;2023-06-26T11:16:12;30.40;59.60
33476;DHT22;19814;48.224;11.422;2023-06-26T11:18:40;30.30;59.80
33476;DHT22;19814;48.224;11.422;2023-06-26T11:21:09;30.40;60.10
33476;DHT22;19814;48.224;11.422;2023-06-26T11:23:37;30.50;60.40
33476;DHT22;19814;48.224;11.422;2023-06-26T11:26:19;30.70;59.20
33476;DHT22;19814;48.224;11.422;2023-06-26T11:28:55;30.90;61.20
33476;DHT22;19814;48.224;11.422;2023-06-26T11:31:40;31.30;60.10
33476;DHT22;19814;48.224;11.422;2023-06-26T11:34:11;31.50;58.60
33476;DHT22;19814;48.224;11.422;2023-06-26T11:36:38;31.70;58.10
33476;DHT22;19814;48.224;11.422;2023-06-26T11:39:05;31.80;58.10
33476;DHT22;19814;48.224;11.422;2023-06-26T11:41:32;31.90;63.00
33476;DHT22;19814;48.224;11.422;2023-06-26T11:44:06;32.10;59.10
33476;DHT22;19814;48.224;11.422;2023-06-26T11:46:34;32.30;56.10
33476;DHT22;19814;48.224;11.422;2023-06-26T11:49:00;32.30;56.30
33476;DHT22;19814;48.224;11.422;2023-06-26T11:51:28;32.10;54.90
33476;DHT22;19814;48.224;11.422;2023-06-26T11:53:54;31.90;55.70
33476;DHT22;19814;48.224;11.422;2023-06-26T11:56:19;31.60;54.50
33476;DHT22;19814;48.224;11.422;2023-06-26T11:59:10;31.40;54.70
33476;DHT22;19814;48.224;11.422;2023-06-26T12:01:40;31.30;56.30
33476;DHT22;19814;48.224;11.422;2023-06-26T12:04:11;31.10;56.40
33476;DHT22;19814;48.224;11.422;2023-06-26T12:06:38;30.90;57.00
33476;DHT22;19814;48.224;11.422;2023-06-26T12:09:09;30.90;56.30
33476;DHT22;19814;48.224;11.422;2023-06-26T12:11:38;31.10;55.90
33476;DHT22;19814;48.224;11.422;2023-06-26T12:14:05;31.20;56.60
33476;DHT22;19814;48.224;11.422;2023-06-26T12:16:34;31.30;57.60
33476;DHT22;19814;48.224;11.422;2023-06-26T12:19:03;31.10;57.70
33476;DHT22;19814;48.224;11.422;2023-06-26T12:21:45;30.90;55.70
33476;DHT22;19814;48.224;11.422;2023-06-26T12:24:16;30.80;58.00
33476;DHT22;19814;48.224;11.422;2023-06-26T12:26:43;30.80;56.80
33476;DHT22;19814;48.224;11.422;2023-06-26T12:29:11;30.90;59.70
33476;DHT22;19814;48.224;11.422;2023-06-26T12:31:43;31.10;56.00
33476;DHT22;19814;48.224;11.422;2023-06-26T12:34:11;31.20;56.30
33476;DHT22;19814;48.224;11.422;2023-06-26T12:36:43;31.20;57.40
33476;DHT22;19814;48.224;11.422;2023-06-26T12:39:10;31.20;59.10
33476;DHT22;19814;48.224;11.422;2023-06-26T12:41:52;31.30;54.10
33476;DHT22;19814;48.224;11.422;2023-06-26T12:46:46;31.70;54.30
33476;DHT22;19814;48.224;11.422;2023-06-26T12:49:12;31.70;56.70
33476;DHT22;19814;48.224;11.422;2023-06-26T12:51:38;31.60;56.30
33476;DHT22;19814;48.224;11.422;2023-06-26T12:54:05;31.60;54.30
33476;DHT22;19814;48.224;11.422;2023-06-26T12:56:31;31.50;54.60
33476;DHT22;19814;48.224;11.422;2023-06-26T12:58:56;31.50;55.70
33476;DHT22;19814;48.224;11.422;2023-06-26T13:01:22;31.30;54.60
33476;DHT22;19814;48.224;11.422;2023-06-26T13:03:49;31.20;56.10
33476;DHT22;19814;48.224;11.422;2023-06-26T13:06:16;31.30;55.60
33476;DHT22;19814;48.224;11.422;2023-06-26T13:08:42;31.40;55.30
33476;DHT22;19814;48.224;11.422;2023-06-26T13:11:08;31.20;53.90
33476;DHT22;19814;48.224;11.422;2023-06-26T13:13:34;30.90;54.40
33476;DHT22;19814;48.224;11.422;2023-06-26T13:15:59;30.90;56.50
33476;DHT22;19814;48.224;11.422;2023-06-26T13:18:25;31.00;58.60
33476;DHT22;19814;48.224;11.422;2023-06-26T13:20:51;31.10;57.00
33476;DHT22;19814;48.224;11.422;2023-06-26T13:23:16;31.10;56.90
33476;DHT22;19814;48.224;11.422;2023-06-26T13:25:43;31.00;56.90
33476;DHT22;19814;48.224;11.422;2023-06-26T13:28:09;31.00;56.90
33476;DHT22;19814;48.224;11.422;2023-06-26T13:30:35;31.10;54.30
33476;DHT22;19814;48.224;11.422;2023-06-26T13:33:00;31.00;55.30
33476;DHT22;19814;48.224;11.422;2023-06-26T13:35:26;31.00;58.40
33476;DHT22;19814;48.224;11.422;2023-06-26T13:37:51;31.10;59.00
33476;DHT22;19814;48.224;11.422;2023-06-26T13:40:17;31.10;57.70
33476;DHT22;19814;48.224;11.422;2023-06-26T13:42:42;31.10;57.50
33476;DHT22;19814;48.224;11.422;2023-06-26T13:45:09;31.00;57.20
33476;DHT22;19814;48.224;11.422;2023-06-26T13:47:35;31.00;57.60
33476;DHT22;19814;48.224;11.422;2023-06-26T13:50:03;31.00;56.10
33476;DHT22;19814;48.224;11.422;2023-06-26T13:52:29;31.10;54.70
33476;DHT22;19814;48.224;11.422;2023-06-26T13:54:55;31.30;55.60
33476;DHT22;19814;48.224;11.422;2023-06-26T13:57:21;31.30;54.90
33476;DHT22;19814;48.224;11.422;2023-06-26T13:59:47;31.40;54.40
33476;DHT22;19814;48.224;11.422;2023-06-26T14:02:13;31.50;54.70
33476;DHT22;19814;48.224;11.422;2023-06-26T14:04:39;31.40;53.30
33476;DHT22;19814;48.224;11.422;2023-06-26T14:07:05;31.50;54.70
33476;DHT22;19814;48.224;11.422;2023-06-26T14:09:31;31.40;52.90
33476;DHT22;19814;48.224;11.422;2023-06-26T14:11:57;31.40;55.20
33476;DHT22;19814;48.224;11.422;2023-06-26T14:14:23;31.30;53.30
33476;DHT22;19814;48.224;11.422;2023-06-26T14:16:48;31.30;54.40
33476;DHT22;19814;48.224;11.422;2023-06-26T14:19:14;31.30;54.30
33476;DHT22;19814;48.224;11.422;2023-06-26T14:21:41;31.30;54.00
33476;DHT22;19814;48.224;11.422;2023-06-26T14:24:06;31.40;54.40
33476;DHT22;19814;48.224;11.422;2023-06-26T14:26:32;31.30;54.90
33476;DHT22;19814;48.224;11.422;2023-06-26T14:28:59;31.40;56.80
33476;DHT22;19814;48.224;11.422;2023-06-26T14:31:25;31.40;55.70
33476;DHT22;19814;48.224;11.422;2023-06-26T14:33:51;31.40;56.50
33476;DHT22;19814;48.224;11.422;2023-06-26T14:36:17;31.40;53.20
33476;DHT22;19814;48.224;11.422;2023-06-26T14:38:42;31.30;53.80
33476;DHT22;19814;48.224;11.422;2023-06-26T14:41:08;31.20;53.90
33476;DHT22;19814;48.224;11.422;2023-06-26T14:43:33;31.10;54.80
33476;DHT22;19814;48.224;11.422;2023-06-26T14:45:59;31.00;55.30
33476;DHT22;19814;48.224;11.422;2023-06-26T14:48:25;30.80;55.50
33476;DHT22;19814;48.224;11.422;2023-06-26T14:50:50;30.90;55.70
33476;DHT22;19814;48.224;11.422;2023-06-26T14:53:16;30.90;55.00
33476;DHT22;19814;48.224;11.422;2023-06-26T14:55:42;31.00;53.50
33476;DHT22;19814;48.224;11.422;2023-06-26T14:58:07;30.90;56.10
33476;DHT22;19814;48.224;11.422;2023-06-26T15:00:33;30.80;55.40
33476;DHT22;19814;48.224;11.422;2023-06-26T15:02:58;30.50;55.60
33476;DHT22;19814;48.224;11.422;2023-06-26T15:05:24;30.40;56.20
33476;DHT22;19814;48.224;11.422;2023-06-26T15:07:50;30.50;55.30
33476;DHT22;19814;48.224;11.422;2023-06-26T15:10:15;30.50;56.20
33476;DHT22;19814;48.224;11.422;2023-06-26T15:12:41;30.40;56.50
33476;DHT22;19814;48.224;11.422;2023-06-26T15:15:08;30.30;56.00
33476;DHT22;19814;48.224;11.422;2023-06-26T15:17:33;30.10;57.40
33476;DHT22;19814;48.224;11.422;2023-06-26T15:19:59;29.90;58.20
33476;DHT22;19814;48.224;11.422;2023-06-26T15:22:26;29.70;58.60
33476;DHT22;19814;48.224;11.422;2023-06-26T15:24:52;29.60;59.20
33476;DHT22;19814;48.224;11.422;2023-06-26T15:27:18;29.60;61.20